sensor_id;sensor_type;location;lat;lon;timestamp;pressure;altitude;pressure_sealevel;temperature;humidity
53754;BME280;39667;52.274;20.964;2022-09-28T00:00:43;98540.50;;;12.83;79.66
53754;BME280;39667;52.274;20.964;2022-09-28T00:03:13;98538.86;;;12.80;79.76
53754;BME280;39667;52.274;20.964;2022-09-28T00:05:40;98535.84;;;12.81;80.05
53754;BME280;39667;52.274;20.964;2022-09-28T00:08:07;98539.10;;;12.79;79.86
53754;BME280;39667;52.274;20.964;2022-09-28T00:10:33;98539.86;;;12.71;79.97
53754;BME280;39667;52.274;20.964;2022-09-28T00:13:00;98543.64;;;12.61;79.93
53754;BME280;39667;52.274;20.964;2022-09-28T00:15:27;98543.32;;;12.53;80.41
53754;BME280;39667;52.274;20.964;2022-09-28T00:17:54;98547.65;;;12.47;80.73
53754;BME280;39667;52.274;20.964;2022-09-28T00:20:21;98550.48;;;12.40;81.11
53754;BME280;39667;52.274;20.964;2022-09-28T00:22:48;98550.77;;;12.33;81.25
53754;BME280;39667;52.274;20.964;2022-09-28T00:25:15;98537.35;;;12.21;81.50
53754;BME280;39667;52.274;20.964;2022-09-28T00:27:48;98536.83;;;12.13;81.96
53754;BME280;39667;52.274;20.964;2022-09-28T00:30:14;98534.66;;;12.06;82.25
53754;BME280;39667;52.274;20.964;2022-09-28T00:32:42;98536.70;;;12.00;82.27
53754;BME280;39667;52.274;20.964;2022-09-28T00:35:10;98533.70;;;11.92;82.50
53754;BME280;39667;52.274;20.964;2022-09-28T00:37:40;98525.67;;;11.86;82.96
53754;BME280;39667;52.274;20.964;2022-09-28T00:40:16;98532.16;;;11.87;83.05
53754;BME280;39667;52.274;20.964;2022-09-28T00:42:44;98538.69;;;11.78;83.06
53754;BME280;39667;52.274;20.964;2022-09-28T00:45:12;98543.64;;;11.74;83.02
53754;BME280;39667;52.274;20.964;2022-09-28T00:47:41;98547.64;;;11.63;82.65
53754;BME280;39667;52.274;20.964;2022-09-28T00:53:13;98547.71;;;11.40;83.07
53754;BME280;39667;52.274;20.964;2022-09-28T00:58:16;98548.91;;;11.37;83.41
53754;BME280;39667;52.274;20.964;2022-09-28T01:00:47;98554.29;;;11.35;83.38
53754;BME280;39667;52.274;20.964;2022-09-28T01:03:16;98554.42;;;11.27;83.38
53754;BME280;39667;52.274;20.964;2022-09-28T01:05:44;98558.22;;;11.16;83.41
53754;BME280;39667;52.274;20.964;2022-09-28T01:08:13;98556.20;;;11.13;83.94
53754;BME280;39667;52.274;20.964;2022-09-28T01:10:42;98554.90;;;11.15;83.87
53754;BME280;39667;52.274;20.964;2022-09-28T01:13:11;98556.50;;;11.11;83.58
53754;BME280;39667;52.274;20.964;2022-09-28T01:18:39;98549.67;;;11.05;83.87
53754;BME280;39667;52.274;20.964;2022-09-28T01:21:11;98546.81;;;11.02;83.89
53754;BME280;39667;52.274;20.964;2022-09-28T01:26:46;98548.95;;;10.97;84.06
53754;BME280;39667;52.274;20.964;2022-09-28T01:34:53;98540.97;;;10.94;84.62
53754;BME280;39667;52.274;20.964;2022-09-28T01:37:31;98533.85;;;11.00;84.44
53754;BME280;39667;52.274;20.964;2022-09-28T01:40:03;98533.65;;;11.00;84.24
53754;BME280;39667;52.274;20.964;2022-09-28T01:42:33;98533.05;;;11.03;84.37
53754;BME280;39667;52.274;20.964;2022-09-28T01:45:08;98532.88;;;11.03;84.05
53754;BME280;39667;52.274;20.964;2022-09-28T01:47:38;98535.05;;;11.00;84.07
53754;BME280;39667;52.274;20.964;2022-09-28T01:50:14;98531.77;;;11.03;84.11
53754;BME280;39667;52.274;20.964;2022-09-28T01:52:51;98534.25;;;11.07;83.99
53754;BME280;39667;52.274;20.964;2022-09-28T01:55:33;98535.32;;;11.07;83.76
53754;BME280;39667;52.274;20.964;2022-09-28T01:58:16;98534.18;;;11.09;84.09
53754;BME280;39667;52.274;20.964;2022-09-28T02:00:48;98524.10;;;11.10;83.88
53754;BME280;39667;52.274;20.964;2022-09-28T02:03:38;98522.10;;;11.12;83.44
53754;BME280;39667;52.274;20.964;2022-09-28T02:06:15;98521.59;;;11.15;83.43
53754;BME280;39667;52.274;20.964;2022-09-28T02:08:49;98526.04;;;11.19;83.45
53754;BME280;39667;52.274;20.964;2022-09-28T02:11:45;98528.08;;;11.25;83.31
53754;BME280;39667;52.274;20.964;2022-09-28T02:14:16;98525.38;;;11.22;83.09
53754;BME280;39667;52.274;20.964;2022-09-28T02:16:46;98527.64;;;11.23;83.22
53754;BME280;39667;52.274;20.964;2022-09-28T02:19:17;98530.62;;;11.27;83.47
53754;BME280;39667;52.274;20.964;2022-09-28T02:24:39;98539.76;;;11.32;82.75
53754;BME280;39667;52.274;20.964;2022-09-28T02:27:15;98542.34;;;11.21;82.89
53754;BME280;39667;52.274;20.964;2022-09-28T02:29:48;98542.81;;;11.18;83.19
53754;BME280;39667;52.274;20.964;2022-09-28T02:32:16;98540.98;;;11.15;83.20
53754;BME280;39667;52.274;20.964;2022-09-28T02:34:45;98540.06;;;11.17;83.27
53754;BME280;39667;52.274;20.964;2022-09-28T02:37:12;98536.46;;;11.19;83.41
53754;BME280;39667;52.274;20.964;2022-09-28T02:39:39;98533.20;;;11.21;83.24
53754;BME280;39667;52.274;20.964;2022-09-28T02:45:05;98534.63;;;11.15;82.81
53754;BME280;39667;52.274;20.964;2022-09-28T02:56:24;98528.98;;;11.07;83.14
53754;BME280;39667;52.274;20.964;2022-09-28T02:59:12;98534.51;;;11.06;83.48
53754;BME280;39667;52.274;20.964;2022-09-28T03:01:50;98532.73;;;11.10;83.45
53754;BME280;39667;52.274;20.964;2022-09-28T03:09:50;98531.21;;;11.22;83.39
53754;BME280;39667;52.274;20.964;2022-09-28T03:12:21;98532.60;;;11.27;83.41
53754;BME280;39667;52.274;20.964;2022-09-28T03:15:12;98529.39;;;11.27;82.92
53754;BME280;39667;52.274;20.964;2022-09-28T03:17:40;98527.42;;;11.19;82.98
53754;BME280;39667;52.274;20.964;2022-09-28T03:20:08;98531.55;;;11.18;83.10
53754;BME280;39667;52.274;20.964;2022-09-28T03:22:36;98532.48;;;11.16;83.12
53754;BME280;39667;52.274;20.964;2022-09-28T03:25:05;98530.58;;;11.15;83.64
53754;BME280;39667;52.274;20.964;2022-09-28T03:27:33;98529.75;;;11.19;83.45
53754;BME280;39667;52.274;20.964;2022-09-28T03:30:00;98530.91;;;11.20;83.63
53754;BME280;39667;52.274;20.964;2022-09-28T03:32:27;98530.92;;;11.24;83.60
53754;BME280;39667;52.274;20.964;2022-09-28T03:34:54;98534.14;;;11.27;83.63
53754;BME280;39667;52.274;20.964;2022-09-28T03:37:22;98534.11;;;11.28;83.37
53754;BME280;39667;52.274;20.964;2022-09-28T03:39:48;98535.86;;;11.28;83.41
53754;BME280;39667;52.274;20.964;2022-09-28T03:42:15;98531.59;;;11.25;83.39
53754;BME280;39667;52.274;20.964;2022-09-28T03:44:45;98534.48;;;11.23;83.40
53754;BME280;39667;52.274;20.964;2022-09-28T03:47:12;98525.61;;;11.21;83.53
53754;BME280;39667;52.274;20.964;2022-09-28T03:49:39;98530.42;;;11.24;83.65
53754;BME280;39667;52.274;20.964;2022-09-28T03:52:07;98530.31;;;11.22;83.64
53754;BME280;39667;52.274;20.964;2022-09-28T03:54:36;98530.39;;;11.20;83.54
53754;BME280;39667;52.274;20.964;2022-09-28T03:57:03;98528.89;;;11.18;83.86
53754;BME280;39667;52.274;20.964;2022-09-28T03:59:30;98526.88;;;11.20;84.05
53754;BME280;39667;52.274;20.964;2022-09-28T04:01:57;98529.79;;;11.22;83.98
53754;BME280;39667;52.274;20.964;2022-09-28T04:04:24;98531.55;;;11.26;84.06
53754;BME280;39667;52.274;20.964;2022-09-28T04:06:51;98529.79;;;11.26;83.88
53754;BME280;39667;52.274;20.964;2022-09-28T04:09:18;98530.69;;;11.25;83.88
53754;BME280;39667;52.274;20.964;2022-09-28T04:11:46;98530.33;;;11.26;84.06
53754;BME280;39667;52.274;20.964;2022-09-28T04:14:28;98535.33;;;11.25;83.93
53754;BME280;39667;52.274;20.964;2022-09-28T04:16:55;98535.28;;;11.21;83.71
53754;BME280;39667;52.274;20.964;2022-09-28T04:19:24;98535.20;;;11.15;83.36
53754;BME280;39667;52.274;20.964;2022-09-28T04:22:07;98535.81;;;11.04;83.45
53754;BME280;39667;52.274;20.964;2022-09-28T04:24:34;98540.86;;;11.01;83.49
53754;BME280;39667;52.274;20.964;2022-09-28T04:27:01;98541.91;;;11.01;83.85
53754;BME280;39667;52.274;20.964;2022-09-28T04:29:47;98549.15;;;11.00;83.79
53754;BME280;39667;52.274;20.964;2022-09-28T04:32:15;98545.69;;;10.95;83.71
53754;BME280;39667;52.274;20.964;2022-09-28T04:34:42;98543.45;;;10.89;83.91
53754;BME280;39667;52.274;20.964;2022-09-28T04:37:10;98540.02;;;10.82;83.99
53754;BME280;39667;52.274;20.964;2022-09-28T04:39:38;98537.44;;;10.76;83.90
53754;BME280;39667;52.274;20.964;2022-09-28T04:42:12;98534.80;;;10.71;84.06
53754;BME280;39667;52.274;20.964;2022-09-28T04:44:39;98537.14;;;10.70;84.13
53754;BME280;39667;52.274;20.964;2022-09-28T04:47:07;98538.04;;;10.70;84.21
53754;BME280;39667;52.274;20.964;2022-09-28T04:50:06;98540.30;;;10.66;84.11
53754;BME280;39667;52.274;20.964;2022-09-28T04:52:36;98545.48;;;10.59;84.20
53754;BME280;39667;52.274;20.964;2022-09-28T04:55:04;98544.76;;;10.55;84.02
53754;BME280;39667;52.274;20.964;2022-09-28T04:57:33;98540.60;;;10.53;84.22
53754;BME280;39667;52.274;20.964;2022-09-28T05:00:01;98538.24;;;10.51;84.17
53754;BME280;39667;52.274;20.964;2022-09-28T05:02:29;98541.71;;;10.47;84.17
53754;BME280;39667;52.274;20.964;2022-09-28T05:05:29;98539.88;;;10.44;84.19
53754;BME280;39667;52.274;20.964;2022-09-28T05:08:19;98540.11;;;10.42;84.18
53754;BME280;39667;52.274;20.964;2022-09-28T05:10:46;98548.21;;;10.42;84.35
53754;BME280;39667;52.274;20.964;2022-09-28T05:13:14;98545.71;;;10.43;84.48
53754;BME280;39667;52.274;20.964;2022-09-28T05:15:42;98546.31;;;10.46;84.39
53754;BME280;39667;52.274;20.964;2022-09-28T05:18:09;98542.86;;;10.44;84.11
53754;BME280;39667;52.274;20.964;2022-09-28T05:20:46;98542.44;;;10.46;84.12
53754;BME280;39667;52.274;20.964;2022-09-28T05:23:13;98543.75;;;10.44;84.15
53754;BME280;39667;52.274;20.964;2022-09-28T05:25:42;98547.58;;;10.45;84.20
53754;BME280;39667;52.274;20.964;2022-09-28T05:28:26;98549.92;;;10.49;84.32
53754;BME280;39667;52.274;20.964;2022-09-28T05:31:13;98551.39;;;10.52;84.21
53754;BME280;39667;52.274;20.964;2022-09-28T05:33:59;98557.98;;;10.50;84.12
53754;BME280;39667;52.274;20.964;2022-09-28T05:36:26;98561.20;;;10.48;84.11
53754;BME280;39667;52.274;20.964;2022-09-28T05:38:53;98565.87;;;10.46;83.72
53754;BME280;39667;52.274;20.964;2022-09-28T05:41:20;98555.90;;;10.43;83.78
53754;BME280;39667;52.274;20.964;2022-09-28T05:43:47;98555.30;;;10.46;83.82
53754;BME280;39667;52.274;20.964;2022-09-28T05:46:14;98556.08;;;10.44;83.46
53754;BME280;39667;52.274;20.964;2022-09-28T05:48:41;98555.84;;;10.45;83.66
53754;BME280;39667;52.274;20.964;2022-09-28T05:51:08;98558.64;;;10.46;83.48
53754;BME280;39667;52.274;20.964;2022-09-28T05:53:35;98565.52;;;10.45;83.37
53754;BME280;39667;52.274;20.964;2022-09-28T05:56:03;98562.61;;;10.44;83.69
53754;BME280;39667;52.274;20.964;2022-09-28T05:58:31;98566.33;;;10.48;83.56
53754;BME280;39667;52.274;20.964;2022-09-28T06:00:58;98572.16;;;10.52;83.69
53754;BME280;39667;52.274;20.964;2022-09-28T06:03:25;98570.48;;;10.55;83.44
53754;BME280;39667;52.274;20.964;2022-09-28T06:05:53;98579.14;;;10.53;83.22
53754;BME280;39667;52.274;20.964;2022-09-28T06:08:20;98580.88;;;10.54;83.25
53754;BME280;39667;52.274;20.964;2022-09-28T06:10:58;98584.58;;;10.54;83.04
53754;BME280;39667;52.274;20.964;2022-09-28T06:13:26;98586.40;;;10.52;82.64
53754;BME280;39667;52.274;20.964;2022-09-28T06:15:53;98584.94;;;10.49;82.70
53754;BME280;39667;52.274;20.964;2022-09-28T06:18:20;98589.14;;;10.44;82.54
53754;BME280;39667;52.274;20.964;2022-09-28T06:21:06;98584.65;;;10.41;82.50
53754;BME280;39667;52.274;20.964;2022-09-28T06:23:41;98583.44;;;10.41;82.47
53754;BME280;39667;52.274;20.964;2022-09-28T06:26:15;98582.71;;;10.42;82.33
53754;BME280;39667;52.274;20.964;2022-09-28T06:28:43;98587.48;;;10.41;82.17
53754;BME280;39667;52.274;20.964;2022-09-28T06:31:10;98588.06;;;10.39;81.94
53754;BME280;39667;52.274;20.964;2022-09-28T06:33:47;98586.89;;;10.38;82.25
53754;BME280;39667;52.274;20.964;2022-09-28T06:36:16;98590.55;;;10.44;82.45
53754;BME280;39667;52.274;20.964;2022-09-28T06:38:42;98594.38;;;10.51;82.31
53754;BME280;39667;52.274;20.964;2022-09-28T06:41:12;98593.05;;;10.58;82.19
53754;BME280;39667;52.274;20.964;2022-09-28T06:43:40;98591.73;;;10.61;81.92
53754;BME280;39667;52.274;20.964;2022-09-28T06:46:25;98586.10;;;10.65;81.90
53754;BME280;39667;52.274;20.964;2022-09-28T06:49:27;98585.52;;;10.71;82.12
53754;BME280;39667;52.274;20.964;2022-09-28T06:52:13;98587.42;;;10.81;81.69
53754;BME280;39667;52.274;20.964;2022-09-28T06:55:10;98589.77;;;10.80;81.24
53754;BME280;39667;52.274;20.964;2022-09-28T06:57:41;98592.39;;;10.80;81.38
53754;BME280;39667;52.274;20.964;2022-09-28T07:00:09;98593.02;;;10.82;81.08
53754;BME280;39667;52.274;20.964;2022-09-28T07:02:36;98590.95;;;10.81;80.55
53754;BME280;39667;52.274;20.964;2022-09-28T07:05:15;98599.08;;;10.80;80.50
53754;BME280;39667;52.274;20.964;2022-09-28T07:08:04;98602.44;;;10.80;80.29
53754;BME280;39667;52.274;20.964;2022-09-28T07:10:54;98608.92;;;10.76;80.20
53754;BME280;39667;52.274;20.964;2022-09-28T07:13:42;98612.13;;;10.75;80.46
53754;BME280;39667;52.274;20.964;2022-09-28T07:16:18;98614.04;;;10.80;80.46
53754;BME280;39667;52.274;20.964;2022-09-28T07:18:52;98617.05;;;10.80;80.13
53754;BME280;39667;52.274;20.964;2022-09-28T07:21:19;98614.50;;;10.86;80.44
53754;BME280;39667;52.274;20.964;2022-09-28T07:23:57;98621.02;;;10.87;79.91
53754;BME280;39667;52.274;20.964;2022-09-28T07:26:54;98615.45;;;10.89;79.94
53754;BME280;39667;52.274;20.964;2022-09-28T07:29:34;98618.98;;;10.89;79.38
53754;BME280;39667;52.274;20.964;2022-09-28T07:32:20;98612.41;;;10.91;79.39
53754;BME280;39667;52.274;20.964;2022-09-28T07:34:56;98611.39;;;10.89;79.41
53754;BME280;39667;52.274;20.964;2022-09-28T07:38:06;98611.54;;;10.91;79.19
53754;BME280;39667;52.274;20.964;2022-09-28T07:40:35;98609.96;;;10.90;78.71
53754;BME280;39667;52.274;20.964;2022-09-28T07:43:21;98609.98;;;10.95;79.29
53754;BME280;39667;52.274;20.964;2022-09-28T07:45:51;98612.49;;;11.02;79.02
53754;BME280;39667;52.274;20.964;2022-09-28T07:48:20;98615.63;;;11.07;79.34
53754;BME280;39667;52.274;20.964;2022-09-28T07:51:16;98623.91;;;11.21;78.98
53754;BME280;39667;52.274;20.964;2022-09-28T07:54:14;98622.98;;;11.27;78.22
53754;BME280;39667;52.274;20.964;2022-09-28T07:56:59;98628.82;;;11.31;77.99
53754;BME280;39667;52.274;20.964;2022-09-28T07:59:38;98632.08;;;11.33;77.75
53754;BME280;39667;52.274;20.964;2022-09-28T08:02:24;98631.77;;;11.36;77.55
53754;BME280;39667;52.274;20.964;2022-09-28T08:04:52;98634.11;;;11.39;77.20
53754;BME280;39667;52.274;20.964;2022-09-28T08:07:19;98630.48;;;11.37;76.99
53754;BME280;39667;52.274;20.964;2022-09-28T08:09:55;98635.57;;;11.38;76.65
53754;BME280;39667;52.274;20.964;2022-09-28T08:12:25;98638.94;;;11.38;76.54
53754;BME280;39667;52.274;20.964;2022-09-28T08:15:00;98644.30;;;11.40;76.67
53754;BME280;39667;52.274;20.964;2022-09-28T08:17:51;98642.46;;;11.46;76.22
53754;BME280;39667;52.274;20.964;2022-09-28T08:20:19;98643.52;;;11.42;76.07
53754;BME280;39667;52.274;20.964;2022-09-28T08:23:07;98638.52;;;11.35;76.16
53754;BME280;39667;52.274;20.964;2022-09-28T08:25:35;98644.26;;;11.32;76.44
53754;BME280;39667;52.274;20.964;2022-09-28T08:28:04;98641.62;;;11.37;76.65
53754;BME280;39667;52.274;20.964;2022-09-28T08:30:39;98642.27;;;11.51;77.04
53754;BME280;39667;52.274;20.964;2022-09-28T08:33:24;98641.26;;;11.67;76.64
53754;BME280;39667;52.274;20.964;2022-09-28T08:36:11;98639.52;;;11.71;75.30
53754;BME280;39667;52.274;20.964;2022-09-28T08:38:57;98649.35;;;11.63;75.07
53754;BME280;39667;52.274;20.964;2022-09-28T08:44:51;98643.34;;;11.77;74.65
53754;BME280;39667;52.274;20.964;2022-09-28T08:47:54;98643.77;;;11.75;73.98
53754;BME280;39667;52.274;20.964;2022-09-28T08:51:06;98639.67;;;11.80;73.65
53754;BME280;39667;52.274;20.964;2022-09-28T08:53:56;98635.75;;;11.94;74.09
53754;BME280;39667;52.274;20.964;2022-09-28T08:56:43;98637.29;;;12.16;73.93
53754;BME280;39667;52.274;20.964;2022-09-28T08:59:18;98636.10;;;12.27;73.28
53754;BME280;39667;52.274;20.964;2022-09-28T09:01:57;98645.62;;;12.20;72.26
53754;BME280;39667;52.274;20.964;2022-09-28T09:04:26;98647.70;;;12.07;72.88
53754;BME280;39667;52.274;20.964;2022-09-28T09:10:31;98646.44;;;12.17;72.70
53754;BME280;39667;52.274;20.964;2022-09-28T09:13:59;98650.50;;;12.21;72.37
53754;BME280;39667;52.274;20.964;2022-09-28T09:22:56;98640.67;;;12.23;71.08
53754;BME280;39667;52.274;20.964;2022-09-28T09:25:50;98641.67;;;12.25;70.30
53754;BME280;39667;52.274;20.964;2022-09-28T09:49:17;98647.52;;;13.66;68.15
53754;BME280;39667;52.274;20.964;2022-09-28T09:52:05;98648.54;;;13.71;66.44
53754;BME280;39667;52.274;20.964;2022-09-28T09:57:33;98651.38;;;13.53;65.70
53754;BME280;39667;52.274;20.964;2022-09-28T10:00:15;98652.45;;;13.45;65.68
53754;BME280;39667;52.274;20.964;2022-09-28T10:02:48;98654.86;;;13.38;65.52
53754;BME280;39667;52.274;20.964;2022-09-28T10:05:28;98660.61;;;13.29;65.16
53754;BME280;39667;52.274;20.964;2022-09-28T10:08:12;98664.25;;;13.23;65.22
53754;BME280;39667;52.274;20.964;2022-09-28T10:10:51;98662.98;;;13.42;65.19
53754;BME280;39667;52.274;20.964;2022-09-28T10:13:19;98663.62;;;13.36;64.75
53754;BME280;39667;52.274;20.964;2022-09-28T10:15:46;98668.70;;;13.22;64.67
53754;BME280;39667;52.274;20.964;2022-09-28T10:18:21;98667.63;;;13.41;65.00
53754;BME280;39667;52.274;20.964;2022-09-28T10:21:26;98667.05;;;13.79;65.20
53754;BME280;39667;52.274;20.964;2022-09-28T10:24:00;98664.61;;;13.82;64.47
53754;BME280;39667;52.274;20.964;2022-09-28T10:26:37;98659.20;;;13.81;64.27
53754;BME280;39667;52.274;20.964;2022-09-28T10:29:15;98668.94;;;13.80;64.15
53754;BME280;39667;52.274;20.964;2022-09-28T10:31:45;98667.33;;;13.70;62.57
53754;BME280;39667;52.274;20.964;2022-09-28T10:34:27;98673.95;;;13.61;62.76
53754;BME280;39667;52.274;20.964;2022-09-28T10:37:00;98674.41;;;13.48;62.16
53754;BME280;39667;52.274;20.964;2022-09-28T10:39:43;98676.53;;;13.40;62.55
53754;BME280;39667;52.274;20.964;2022-09-28T10:42:16;98676.25;;;13.35;62.87
53754;BME280;39667;52.274;20.964;2022-09-28T10:47:35;98673.05;;;13.35;63.01
53754;BME280;39667;52.274;20.964;2022-09-28T10:50:22;98673.41;;;13.31;63.03
53754;BME280;39667;52.274;20.964;2022-09-28T10:53:10;98675.46;;;13.26;63.07
53754;BME280;39667;52.274;20.964;2022-09-28T10:55:59;98676.06;;;13.24;63.26
53754;BME280;39667;52.274;20.964;2022-09-28T10:58:39;98678.49;;;13.21;63.12
53754;BME280;39667;52.274;20.964;2022-09-28T11:01:17;98677.80;;;13.13;63.27
53754;BME280;39667;52.274;20.964;2022-09-28T11:04:00;98671.98;;;13.09;63.44
53754;BME280;39667;52.274;20.964;2022-09-28T11:06:31;98677.63;;;13.09;63.72
53754;BME280;39667;52.274;20.964;2022-09-28T11:09:00;98676.04;;;13.13;63.98
53754;BME280;39667;52.274;20.964;2022-09-28T11:11:29;98674.42;;;13.13;63.58
53754;BME280;39667;52.274;20.964;2022-09-28T11:14:01;98664.59;;;13.12;63.30
53754;BME280;39667;52.274;20.964;2022-09-28T11:16:34;98661.73;;;13.16;63.34
53754;BME280;39667;52.274;20.964;2022-09-28T11:21:50;98655.86;;;13.47;63.63
53754;BME280;39667;52.274;20.964;2022-09-28T11:24:22;98656.23;;;13.98;63.01
53754;BME280;39667;52.274;20.964;2022-09-28T11:26:55;98660.39;;;14.28;62.21
53754;BME280;39667;52.274;20.964;2022-09-28T11:29:42;98662.85;;;14.48;61.91
53754;BME280;39667;52.274;20.964;2022-09-28T11:32:19;98659.14;;;14.92;60.05
53754;BME280;39667;52.274;20.964;2022-09-28T11:35:11;98661.61;;;14.89;59.49
53754;BME280;39667;52.274;20.964;2022-09-28T11:37:46;98660.56;;;14.78;58.88
53754;BME280;39667;52.274;20.964;2022-09-28T11:46:12;98658.85;;;14.54;58.41
53754;BME280;39667;52.274;20.964;2022-09-28T11:48:46;98661.35;;;14.46;58.27
53754;BME280;39667;52.274;20.964;2022-09-28T11:51:24;98658.29;;;14.37;59.02
53754;BME280;39667;52.274;20.964;2022-09-28T11:54:02;98656.02;;;14.37;58.80
53754;BME280;39667;52.274;20.964;2022-09-28T11:56:38;98662.02;;;14.30;59.38
53754;BME280;39667;52.274;20.964;2022-09-28T12:01:58;98664.35;;;14.43;59.92
53754;BME280;39667;52.274;20.964;2022-09-28T12:07:20;98673.21;;;14.46;58.95
53754;BME280;39667;52.274;20.964;2022-09-28T12:15:25;98678.33;;;14.30;58.34
53754;BME280;39667;52.274;20.964;2022-09-28T12:18:06;98685.85;;;14.20;57.99
53754;BME280;39667;52.274;20.964;2022-09-28T12:20:42;98680.23;;;14.03;57.45
53754;BME280;39667;52.274;20.964;2022-09-28T12:23:19;98679.81;;;13.90;57.86
53754;BME280;39667;52.274;20.964;2022-09-28T12:26:02;98679.73;;;13.84;58.61
53754;BME280;39667;52.274;20.964;2022-09-28T12:28:50;98680.61;;;13.84;59.28
53754;BME280;39667;52.274;20.964;2022-09-28T12:31:24;98679.47;;;13.75;58.98
53754;BME280;39667;52.274;20.964;2022-09-28T12:33:53;98678.17;;;13.70;59.16
53754;BME280;39667;52.274;20.964;2022-09-28T12:36:41;98678.44;;;13.64;59.29
53754;BME280;39667;52.274;20.964;2022-09-28T12:39:41;98682.81;;;13.57;59.72
53754;BME280;39667;52.274;20.964;2022-09-28T12:42:55;98684.59;;;13.75;59.61
53754;BME280;39667;52.274;20.964;2022-09-28T13:08:09;98670.91;;;13.98;59.12
53754;BME280;39667;52.274;20.964;2022-09-28T13:10:42;98673.09;;;13.90;58.78
53754;BME280;39667;52.274;20.964;2022-09-28T13:15:49;98671.47;;;13.61;60.04
53754;BME280;39667;52.274;20.964;2022-09-28T13:21:03;98667.09;;;13.45;61.04
53754;BME280;39667;52.274;20.964;2022-09-28T13:23:41;98664.56;;;13.39;61.44
53754;BME280;39667;52.274;20.964;2022-09-28T13:28:43;98657.81;;;13.43;62.45
53754;BME280;39667;52.274;20.964;2022-09-28T13:31:18;98658.38;;;13.46;62.55
53754;BME280;39667;52.274;20.964;2022-09-28T13:33:47;98658.55;;;13.51;62.89
53754;BME280;39667;52.274;20.964;2022-09-28T13:38:55;98655.40;;;13.50;62.76
53754;BME280;39667;52.274;20.964;2022-09-28T13:41:47;98653.08;;;13.58;63.67
53754;BME280;39667;52.274;20.964;2022-09-28T13:44:26;98647.21;;;13.69;64.64
53754;BME280;39667;52.274;20.964;2022-09-28T13:53:02;98652.02;;;14.42;63.10
53754;BME280;39667;52.274;20.964;2022-09-28T13:55:56;98652.94;;;14.62;62.43
53754;BME280;39667;52.274;20.964;2022-09-28T13:58:32;98654.71;;;14.99;61.63
53754;BME280;39667;52.274;20.964;2022-09-28T14:01:13;98658.13;;;15.04;61.02
53754;BME280;39667;52.274;20.964;2022-09-28T14:06:40;98651.33;;;15.12;59.93
53754;BME280;39667;52.274;20.964;2022-09-28T14:15:00;98648.63;;;15.69;58.89
53754;BME280;39667;52.274;20.964;2022-09-28T14:17:43;98649.63;;;15.70;58.14
53754;BME280;39667;52.274;20.964;2022-09-28T14:20:17;98643.73;;;15.62;57.84
53754;BME280;39667;52.274;20.964;2022-09-28T14:25:29;98644.63;;;15.80;58.73
53754;BME280;39667;52.274;20.964;2022-09-28T14:28:23;98647.20;;;15.88;58.79
53754;BME280;39667;52.274;20.964;2022-09-28T14:30:55;98648.19;;;15.98;58.75
53754;BME280;39667;52.274;20.964;2022-09-28T14:33:30;98645.95;;;16.00;59.18
53754;BME280;39667;52.274;20.964;2022-09-28T14:36:04;98639.89;;;15.98;58.43
53754;BME280;39667;52.274;20.964;2022-09-28T14:38:44;98644.48;;;15.89;58.30
53754;BME280;39667;52.274;20.964;2022-09-28T14:44:01;98652.92;;;15.62;58.63
53754;BME280;39667;52.274;20.964;2022-09-28T14:46:31;98651.38;;;15.52;58.86
53754;BME280;39667;52.274;20.964;2022-09-28T14:49:05;98652.84;;;15.36;58.54
53754;BME280;39667;52.274;20.964;2022-09-28T14:54:23;98651.30;;;14.99;58.49
53754;BME280;39667;52.274;20.964;2022-09-28T14:59:27;98650.42;;;14.79;58.22
53754;BME280;39667;52.274;20.964;2022-09-28T15:05:00;98658.48;;;14.54;58.12
53754;BME280;39667;52.274;20.964;2022-09-28T15:07:34;98656.71;;;14.40;58.33
53754;BME280;39667;52.274;20.964;2022-09-28T15:10:28;98661.25;;;14.31;58.76
53754;BME280;39667;52.274;20.964;2022-09-28T15:13:04;98661.86;;;14.29;58.87
53754;BME280;39667;52.274;20.964;2022-09-28T15:15:37;98664.30;;;14.27;58.90
53754;BME280;39667;52.274;20.964;2022-09-28T15:20:48;98661.73;;;14.29;59.17
53754;BME280;39667;52.274;20.964;2022-09-28T15:23:35;98665.54;;;14.24;58.77
53754;BME280;39667;52.274;20.964;2022-09-28T15:26:05;98667.97;;;14.18;58.97
53754;BME280;39667;52.274;20.964;2022-09-28T15:28:36;98667.90;;;14.09;58.77
53754;BME280;39667;52.274;20.964;2022-09-28T15:31:16;98669.70;;;14.01;58.98
53754;BME280;39667;52.274;20.964;2022-09-28T15:33:44;98666.84;;;13.98;59.09
53754;BME280;39667;52.274;20.964;2022-09-28T15:36:42;98662.05;;;13.91;58.59
53754;BME280;39667;52.274;20.964;2022-09-28T15:39:23;98654.02;;;13.82;58.72
53754;BME280;39667;52.274;20.964;2022-09-28T15:41:54;98647.44;;;13.76;58.84
53754;BME280;39667;52.274;20.964;2022-09-28T15:44:33;98642.87;;;13.68;59.23
53754;BME280;39667;52.274;20.964;2022-09-28T15:47:14;98653.02;;;13.67;59.49
53754;BME280;39667;52.274;20.964;2022-09-28T15:49:58;98655.85;;;13.59;59.15
53754;BME280;39667;52.274;20.964;2022-09-28T15:52:37;98652.77;;;13.49;59.28
53754;BME280;39667;52.274;20.964;2022-09-28T15:57:48;98636.63;;;13.50;59.84
53754;BME280;39667;52.274;20.964;2022-09-28T16:00:29;98642.45;;;13.50;60.10
53754;BME280;39667;52.274;20.964;2022-09-28T16:03:03;98651.99;;;13.51;60.02
53754;BME280;39667;52.274;20.964;2022-09-28T16:05:50;98651.72;;;13.49;59.91
53754;BME280;39667;52.274;20.964;2022-09-28T16:08:20;98656.67;;;13.45;59.47
53754;BME280;39667;52.274;20.964;2022-09-28T16:11:03;98656.64;;;13.42;59.80
53754;BME280;39667;52.274;20.964;2022-09-28T16:13:32;98661.41;;;13.42;60.14
53754;BME280;39667;52.274;20.964;2022-09-28T16:16:00;98661.08;;;13.42;60.42